sensor_id;sensor_type;location;lat;lon;timestamp;temperature;humidity
3976;DHT22;2002;48.812;9.180;2023-04-03T00:00:56;16.00;1.00
3976;DHT22;2002;48.812;9.180;2023-04-03T00:03:22;16.00;1.00
3976;DHT22;2002;48.812;9.180;2023-04-03T00:05:48;16.00;1.00
3976;DHT22;2002;48.812;9.180;2023-04-03T00:08:14;16.00;1.00
3976;DHT22;2002;48.812;9.180;2023-04-03T00:10:40;16.00;1.00
3976;DHT22;2002;48.812;9.180;2023-04-03T00:13:07;16.00;1.00
3976;DHT22;2002;48.812;9.180;2023-04-03T00:15:33;16.00;1.00
3976;DHT22;2002;48.812;9.180;2023-04-03T00:17:58;16.10;1.00
3976;DHT22;2002;48.812;9.180;2023-04-03T00:20:24;16.20;1.00
3976;DHT22;2002;48.812;9.180;2023-04-03T00:22:50;16.30;1.00
3976;DHT22;2002;48.812;9.180;2023-04-03T00:25:15;16.40;1.00
3976;DHT22;2002;48.812;9.180;2023-04-03T00:27:41;16.50;1.00
3976;DHT22;2002;48.812;9.180;2023-04-03T00:30:09;16.40;1.00
3976;DHT22;2002;48.812;9.180;2023-04-03T00:32:35;16.40;1.00
3976;DHT22;2002;48.812;9.180;2023-04-03T00:35:01;16.40;1.00
3976;DHT22;2002;48.812;9.180;2023-04-03T00:37:26;16.40;1.00
3976;DHT22;2002;48.812;9.180;2023-04-03T00:39:52;16.30;1.00
3976;DHT22;2002;48.812;9.180;2023-04-03T00:42:18;16.30;1.00
3976;DHT22;2002;48.812;9.180;2023-04-03T00:47:12;16.30;1.00
3976;DHT22;2002;48.812;9.180;2023-04-03T00:49:38;16.20;1.00
3976;DHT22;2002;48.812;9.180;2023-04-03T00:52:13;16.20;1.00
3976;DHT22;2002;48.812;9.180;2023-04-03T00:54:40;16.20;1.00
3976;DHT22;2002;48.812;9.180;2023-04-03T00:57:07;16.20;1.00
3976;DHT22;2002;48.812;9.180;2023-04-03T00:59:36;16.20;1.00
3976;DHT22;2002;48.812;9.180;2023-04-03T01:02:04;16.20;1.00
3976;DHT22;2002;48.812;9.180;2023-04-03T01:04:40;16.10;1.00
3976;DHT22;2002;48.812;9.180;2023-04-03T01:07:15;16.10;1.00
3976;DHT22;2002;48.812;9.180;2023-04-03T01:09:42;16.10;1.00
3976;DHT22;2002;48.812;9.180;2023-04-03T01:12:21;16.10;1.00
3976;DHT22;2002;48.812;9.180;2023-04-03T01:14:51;16.10;1.00
3976;DHT22;2002;48.812;9.180;2023-04-03T01:20:02;16.00;1.00
3976;DHT22;2002;48.812;9.180;2023-04-03T01:22:58;16.00;1.00
3976;DHT22;2002;48.812;9.180;2023-04-03T01:25:25;16.00;1.00
3976;DHT22;2002;48.812;9.180;2023-04-03T01:27:51;16.00;1.00
3976;DHT22;2002;48.812;9.180;2023-04-03T01:30:19;16.00;1.00
3976;DHT22;2002;48.812;9.180;2023-04-03T01:32:45;16.00;1.00
3976;DHT22;2002;48.812;9.180;2023-04-03T01:35:12;16.00;1.00
3976;DHT22;2002;48.812;9.180;2023-04-03T01:37:38;16.00;1.00
3976;DHT22;2002;48.812;9.180;2023-04-03T01:40:04;16.00;1.00
3976;DHT22;2002;48.812;9.180;2023-04-03T01:42:29;16.00;1.00
3976;DHT22;2002;48.812;9.180;2023-04-03T01:44:55;16.00;1.00
3976;DHT22;2002;48.812;9.180;2023-04-03T01:47:21;16.00;1.00
3976;DHT22;2002;48.812;9.180;2023-04-03T01:49:47;16.00;1.00
3976;DHT22;2002;48.812;9.180;2023-04-03T01:52:13;16.00;1.00
3976;DHT22;2002;48.812;9.180;2023-04-03T01:54:38;16.00;1.00
3976;DHT22;2002;48.812;9.180;2023-04-03T01:57:04;16.10;1.00
3976;DHT22;2002;48.812;9.180;2023-04-03T01:59:30;16.20;1.00
3976;DHT22;2002;48.812;9.180;2023-04-03T02:01:55;16.30;1.00
3976;DHT22;2002;48.812;9.180;2023-04-03T02:04:21;16.40;1.00
3976;DHT22;2002;48.812;9.180;2023-04-03T02:06:47;16.40;1.00
3976;DHT22;2002;48.812;9.180;2023-04-03T02:09:12;16.50;1.00
3976;DHT22;2002;48.812;9.180;2023-04-03T02:11:38;16.40;1.00
3976;DHT22;2002;48.812;9.180;2023-04-03T02:14:04;16.40;1.00
3976;DHT22;2002;48.812;9.180;2023-04-03T02:16:29;16.30;1.00
3976;DHT22;2002;48.812;9.180;2023-04-03T02:18:56;16.30;1.00
3976;DHT22;2002;48.812;9.180;2023-04-03T02:21:22;16.30;1.00
3976;DHT22;2002;48.812;9.180;2023-04-03T02:23:48;16.30;1.00
3976;DHT22;2002;48.812;9.180;2023-04-03T02:26:15;16.20;1.00
3976;DHT22;2002;48.812;9.180;2023-04-03T02:28:40;16.20;1.00
3976;DHT22;2002;48.812;9.180;2023-04-03T02:31:07;16.20;1.00
3976;DHT22;2002;48.812;9.180;2023-04-03T02:33:33;16.20;1.00
3976;DHT22;2002;48.812;9.180;2023-04-03T02:35:59;16.10;1.00
3976;DHT22;2002;48.812;9.180;2023-04-03T02:38:25;16.10;1.00
3976;DHT22;2002;48.812;9.180;2023-04-03T02:40:51;16.10;1.00
3976;DHT22;2002;48.812;9.180;2023-04-03T02:43:17;16.10;1.00
3976;DHT22;2002;48.812;9.180;2023-04-03T02:45:43;16.10;1.00
3976;DHT22;2002;48.812;9.180;2023-04-03T02:48:08;16.10;1.00
3976;DHT22;2002;48.812;9.180;2023-04-03T02:50:34;16.00;1.00
3976;DHT22;2002;48.812;9.180;2023-04-03T02:53:00;16.00;1.00
3976;DHT22;2002;48.812;9.180;2023-04-03T02:55:25;16.00;1.00
3976;DHT22;2002;48.812;9.180;2023-04-03T02:57:51;16.00;1.00
3976;DHT22;2002;48.812;9.180;2023-04-03T03:00:17;16.00;1.00
3976;DHT22;2002;48.812;9.180;2023-04-03T03:02:43;16.00;1.00
3976;DHT22;2002;48.812;9.180;2023-04-03T03:05:08;16.00;1.00
3976;DHT22;2002;48.812;9.180;2023-04-03T03:07:34;16.00;1.00
3976;DHT22;2002;48.812;9.180;2023-04-03T03:10:00;16.00;1.00
3976;DHT22;2002;48.812;9.180;2023-04-03T03:12:25;16.00;1.00
3976;DHT22;2002;48.812;9.180;2023-04-03T03:14:51;15.90;1.00
3976;DHT22;2002;48.812;9.180;2023-04-03T03:17:17;15.90;1.00
3976;DHT22;2002;48.812;9.180;2023-04-03T03:19:43;15.90;1.00
3976;DHT22;2002;48.812;9.180;2023-04-03T03:22:08;16.00;1.00
3976;DHT22;2002;48.812;9.180;2023-04-03T03:24:34;16.00;1.00
3976;DHT22;2002;48.812;9.180;2023-04-03T03:26:59;16.20;1.00
3976;DHT22;2002;48.812;9.180;2023-04-03T03:29:25;16.30;1.00
3976;DHT22;2002;48.812;9.180;2023-04-03T03:31:50;16.50;1.00
3976;DHT22;2002;48.812;9.180;2023-04-03T03:34:16;16.50;1.00
3976;DHT22;2002;48.812;9.180;2023-04-03T03:36:41;16.50;1.00
3976;DHT22;2002;48.812;9.180;2023-04-03T03:39:07;16.50;1.00
3976;DHT22;2002;48.812;9.180;2023-04-03T03:41:33;16.40;1.00
3976;DHT22;2002;48.812;9.180;2023-04-03T03:43:58;16.40;1.00
3976;DHT22;2002;48.812;9.180;2023-04-03T03:46:24;16.30;1.00
3976;DHT22;2002;48.812;9.180;2023-04-03T03:48:49;16.30;1.00
3976;DHT22;2002;48.812;9.180;2023-04-03T03:51:15;16.30;1.00
3976;DHT22;2002;48.812;9.180;2023-04-03T03:53:41;16.30;1.00
3976;DHT22;2002;48.812;9.180;2023-04-03T03:56:06;16.20;1.00
3976;DHT22;2002;48.812;9.180;2023-04-03T03:58:32;16.30;1.00
3976;DHT22;2002;48.812;9.180;2023-04-03T04:01:04;16.30;1.00
3976;DHT22;2002;48.812;9.180;2023-04-03T04:03:30;16.20;1.00
3976;DHT22;2002;48.812;9.180;2023-04-03T04:05:56;16.10;1.00
3976;DHT22;2002;48.812;9.180;2023-04-03T04:08:22;16.10;1.00
3976;DHT22;2002;48.812;9.180;2023-04-03T04:10:47;16.10;1.00
3976;DHT22;2002;48.812;9.180;2023-04-03T04:13:13;16.10;1.00
3976;DHT22;2002;48.812;9.180;2023-04-03T04:15:39;16.10;1.00
3976;DHT22;2002;48.812;9.180;2023-04-03T04:18:04;16.10;1.00
3976;DHT22;2002;48.812;9.180;2023-04-03T04:20:30;16.10;1.00
3976;DHT22;2002;48.812;9.180;2023-04-03T04:22:55;16.10;1.00
3976;DHT22;2002;48.812;9.180;2023-04-03T04:25:21;16.10;1.00
3976;DHT22;2002;48.812;9.180;2023-04-03T04:27:46;16.10;1.00
3976;DHT22;2002;48.812;9.180;2023-04-03T04:30:12;16.10;1.00
3976;DHT22;2002;48.812;9.180;2023-04-03T04:32:38;16.10;1.00
3976;DHT22;2002;48.812;9.180;2023-04-03T04:35:04;16.10;1.00
3976;DHT22;2002;48.812;9.180;2023-04-03T04:37:30;16.10;1.00
3976;DHT22;2002;48.812;9.180;2023-04-03T04:39:56;16.10;1.00
3976;DHT22;2002;48.812;9.180;2023-04-03T04:42:22;16.10;1.00
3976;DHT22;2002;48.812;9.180;2023-04-03T04:44:47;16.00;1.00
3976;DHT22;2002;48.812;9.180;2023-04-03T04:47:13;16.10;1.00
3976;DHT22;2002;48.812;9.180;2023-04-03T04:49:38;16.10;1.00
3976;DHT22;2002;48.812;9.180;2023-04-03T04:52:04;16.10;1.00
3976;DHT22;2002;48.812;9.180;2023-04-03T04:54:30;16.20;1.00
3976;DHT22;2002;48.812;9.180;2023-04-03T04:56:55;16.20;1.00
3976;DHT22;2002;48.812;9.180;2023-04-03T04:59:21;16.20;1.00
3976;DHT22;2002;48.812;9.180;2023-04-03T05:01:47;16.20;1.00
3976;DHT22;2002;48.812;9.180;2023-04-03T05:04:12;16.20;1.00
3976;DHT22;2002;48.812;9.180;2023-04-03T05:06:38;16.30;1.00
3976;DHT22;2002;48.812;9.180;2023-04-03T05:09:04;16.40;1.00
3976;DHT22;2002;48.812;9.180;2023-04-03T05:11:30;16.50;1.00
3976;DHT22;2002;48.812;9.180;2023-04-03T05:13:56;16.70;1.00
3976;DHT22;2002;48.812;9.180;2023-04-03T05:16:21;16.70;1.00
3976;DHT22;2002;48.812;9.180;2023-04-03T05:18:47;16.70;1.00
3976;DHT22;2002;48.812;9.180;2023-04-03T05:21:13;16.60;1.00
3976;DHT22;2002;48.812;9.180;2023-04-03T05:23:38;16.60;1.00
3976;DHT22;2002;48.812;9.180;2023-04-03T05:26:04;16.60;1.00
3976;DHT22;2002;48.812;9.180;2023-04-03T05:28:30;16.60;1.00
3976;DHT22;2002;48.812;9.180;2023-04-03T05:30:57;16.50;1.00
3976;DHT22;2002;48.812;9.180;2023-04-03T05:33:23;16.50;1.00
3976;DHT22;2002;48.812;9.180;2023-04-03T05:35:49;16.50;1.00
3976;DHT22;2002;48.812;9.180;2023-04-03T05:38:14;16.50;1.00
3976;DHT22;2002;48.812;9.180;2023-04-03T05:40:40;16.40;1.00
3976;DHT22;2002;48.812;9.180;2023-04-03T05:43:06;16.40;1.00
3976;DHT22;2002;48.812;9.180;2023-04-03T05:45:31;16.50;1.00
3976;DHT22;2002;48.812;9.180;2023-04-03T05:47:57;16.40;1.00
3976;DHT22;2002;48.812;9.180;2023-04-03T05:50:22;16.40;1.00
3976;DHT22;2002;48.812;9.180;2023-04-03T05:52:49;16.40;1.00
3976;DHT22;2002;48.812;9.180;2023-04-03T05:55:16;16.30;1.00
3976;DHT22;2002;48.812;9.180;2023-04-03T05:57:41;16.30;1.00
3976;DHT22;2002;48.812;9.180;2023-04-03T06:00:08;16.30;1.00
3976;DHT22;2002;48.812;9.180;2023-04-03T06:02:35;16.30;1.00
3976;DHT22;2002;48.812;9.180;2023-04-03T06:05:01;16.30;1.00
3976;DHT22;2002;48.812;9.180;2023-04-03T06:07:27;16.40;1.00
3976;DHT22;2002;48.812;9.180;2023-04-03T06:09:54;16.30;1.00
3976;DHT22;2002;48.812;9.180;2023-04-03T06:12:21;16.30;1.00
3976;DHT22;2002;48.812;9.180;2023-04-03T06:14:47;16.30;1.00
3976;DHT22;2002;48.812;9.180;2023-04-03T06:17:14;16.30;1.00
3976;DHT22;2002;48.812;9.180;2023-04-03T06:19:40;16.40;1.00
3976;DHT22;2002;48.812;9.180;2023-04-03T06:22:06;16.30;1.00
3976;DHT22;2002;48.812;9.180;2023-04-03T06:24:32;16.30;1.00
3976;DHT22;2002;48.812;9.180;2023-04-03T06:26:58;16.30;1.00
3976;DHT22;2002;48.812;9.180;2023-04-03T06:29:24;16.30;1.00
3976;DHT22;2002;48.812;9.180;2023-04-03T06:31:50;16.30;1.00
3976;DHT22;2002;48.812;9.180;2023-04-03T06:34:16;16.30;1.00
3976;DHT22;2002;48.812;9.180;2023-04-03T06:36:44;16.30;1.00
3976;DHT22;2002;48.812;9.180;2023-04-03T06:39:15;16.30;1.00
3976;DHT22;2002;48.812;9.180;2023-04-03T06:41:41;16.20;1.00
3976;DHT22;2002;48.812;9.180;2023-04-03T06:44:07;16.30;1.00
3976;DHT22;2002;48.812;9.180;2023-04-03T06:46:36;16.30;1.00
3976;DHT22;2002;48.812;9.180;2023-04-03T06:49:02;16.30;1.00
3976;DHT22;2002;48.812;9.180;2023-04-03T06:51:29;16.30;1.00
3976;DHT22;2002;48.812;9.180;2023-04-03T06:53:56;16.30;1.00
3976;DHT22;2002;48.812;9.180;2023-04-03T06:56:23;16.30;1.00
3976;DHT22;2002;48.812;9.180;2023-04-03T06:58:48;16.30;1.00
3976;DHT22;2002;48.812;9.180;2023-04-03T07:01:16;16.30;1.00
3976;DHT22;2002;48.812;9.180;2023-04-03T07:03:43;16.20;1.00
3976;DHT22;2002;48.812;9.180;2023-04-03T07:06:11;16.20;1.00
3976;DHT22;2002;48.812;9.180;2023-04-03T07:08:37;16.30;1.00
3976;DHT22;2002;48.812;9.180;2023-04-03T07:11:04;16.20;1.00
3976;DHT22;2002;48.812;9.180;2023-04-03T07:13:30;16.30;1.00
3976;DHT22;2002;48.812;9.180;2023-04-03T07:15:55;16.40;1.00
3976;DHT22;2002;48.812;9.180;2023-04-03T07:18:21;16.60;1.00
3976;DHT22;2002;48.812;9.180;2023-04-03T07:20:47;16.70;1.00
3976;DHT22;2002;48.812;9.180;2023-04-03T07:23:13;16.70;1.00
3976;DHT22;2002;48.812;9.180;2023-04-03T07:25:46;16.70;1.00
3976;DHT22;2002;48.812;9.180;2023-04-03T07:28:12;16.60;1.00
3976;DHT22;2002;48.812;9.180;2023-04-03T07:30:46;16.70;1.00
3976;DHT22;2002;48.812;9.180;2023-04-03T07:33:13;16.60;1.00
3976;DHT22;2002;48.812;9.180;2023-04-03T07:35:39;16.60;1.00
3976;DHT22;2002;48.812;9.180;2023-04-03T07:38:05;16.50;1.00
3976;DHT22;2002;48.812;9.180;2023-04-03T07:40:31;16.50;1.00
3976;DHT22;2002;48.812;9.180;2023-04-03T07:42:57;16.50;1.00
3976;DHT22;2002;48.812;9.180;2023-04-03T07:45:24;16.40;1.00
3976;DHT22;2002;48.812;9.180;2023-04-03T07:47:49;16.40;1.00
3976;DHT22;2002;48.812;9.180;2023-04-03T07:50:15;16.40;1.00
3976;DHT22;2002;48.812;9.180;2023-04-03T07:52:43;16.40;1.00
3976;DHT22;2002;48.812;9.180;2023-04-03T07:55:08;16.40;1.00
3976;DHT22;2002;48.812;9.180;2023-04-03T07:57:34;16.40;1.00
3976;DHT22;2002;48.812;9.180;2023-04-03T08:00:00;16.40;1.00
3976;DHT22;2002;48.812;9.180;2023-04-03T08:02:26;16.30;1.00
3976;DHT22;2002;48.812;9.180;2023-04-03T08:04:52;16.40;1.00
3976;DHT22;2002;48.812;9.180;2023-04-03T08:07:17;16.30;1.00
3976;DHT22;2002;48.812;9.180;2023-04-03T08:09:43;16.30;1.00
3976;DHT22;2002;48.812;9.180;2023-04-03T08:12:09;16.30;1.00
3976;DHT22;2002;48.812;9.180;2023-04-03T08:14:36;16.30;1.00
3976;DHT22;2002;48.812;9.180;2023-04-03T08:17:02;16.30;1.00
3976;DHT22;2002;48.812;9.180;2023-04-03T08:19:29;16.30;1.00
3976;DHT22;2002;48.812;9.180;2023-04-03T08:21:55;16.30;1.00
3976;DHT22;2002;48.812;9.180;2023-04-03T08:24:22;16.30;1.00
3976;DHT22;2002;48.812;9.180;2023-04-03T08:26:47;16.30;1.00
3976;DHT22;2002;48.812;9.180;2023-04-03T08:29:13;16.30;1.00
3976;DHT22;2002;48.812;9.180;2023-04-03T08:31:39;16.30;1.00
3976;DHT22;2002;48.812;9.180;2023-04-03T08:34:04;16.30;1.00
3976;DHT22;2002;48.812;9.180;2023-04-03T08:36:30;16.30;1.00
3976;DHT22;2002;48.812;9.180;2023-04-03T08:38:57;16.30;1.00
3976;DHT22;2002;48.812;9.180;2023-04-03T08:41:33;16.30;1.00
3976;DHT22;2002;48.812;9.180;2023-04-03T08:50:00;16.20;1.00
3976;DHT22;2002;48.812;9.180;2023-04-03T08:52:41;16.20;1.00
3976;DHT22;2002;48.812;9.180;2023-04-03T08:57:44;16.30;1.00
3976;DHT22;2002;48.812;9.180;2023-04-03T09:02:45;16.20;1.00
3976;DHT22;2002;48.812;9.180;2023-04-03T09:05:32;16.20;1.00
3976;DHT22;2002;48.812;9.180;2023-04-03T09:08:22;16.30;1.00
3976;DHT22;2002;48.812;9.180;2023-04-03T09:10:49;16.20;1.00
3976;DHT22;2002;48.812;9.180;2023-04-03T09:13:40;16.20;1.00
3976;DHT22;2002;48.812;9.180;2023-04-03T09:16:32;16.30;1.00
3976;DHT22;2002;48.812;9.180;2023-04-03T09:22:25;16.40;1.00
3976;DHT22;2002;48.812;9.180;2023-04-03T09:25:15;16.60;1.00
3976;DHT22;2002;48.812;9.180;2023-04-03T09:27:42;16.80;1.00
3976;DHT22;2002;48.812;9.180;2023-04-03T09:30:20;16.80;1.00
3976;DHT22;2002;48.812;9.180;2023-04-03T09:32:48;16.70;1.00
3976;DHT22;2002;48.812;9.180;2023-04-03T09:35:19;16.70;1.00
3976;DHT22;2002;48.812;9.180;2023-04-03T09:37:48;16.60;1.00
3976;DHT22;2002;48.812;9.180;2023-04-03T09:42:57;16.60;1.00
3976;DHT22;2002;48.812;9.180;2023-04-03T09:45:29;16.50;1.00
3976;DHT22;2002;48.812;9.180;2023-04-03T09:50:54;16.40;1.00
3976;DHT22;2002;48.812;9.180;2023-04-03T09:53:40;16.40;1.00
3976;DHT22;2002;48.812;9.180;2023-04-03T09:56:22;16.40;1.00
3976;DHT22;2002;48.812;9.180;2023-04-03T09:59:08;16.40;1.00
3976;DHT22;2002;48.812;9.180;2023-04-03T10:01:38;16.40;1.00
3976;DHT22;2002;48.812;9.180;2023-04-03T10:06:32;16.30;1.00
3976;DHT22;2002;48.812;9.180;2023-04-03T10:09:28;16.30;1.00
3976;DHT22;2002;48.812;9.180;2023-04-03T10:12:04;16.30;1.00
3976;DHT22;2002;48.812;9.180;2023-04-03T10:14:34;16.30;1.00
3976;DHT22;2002;48.812;9.180;2023-04-03T10:17:32;16.30;1.00
3976;DHT22;2002;48.812;9.180;2023-04-03T10:23:01;16.30;1.00
3976;DHT22;2002;48.812;9.180;2023-04-03T10:28:35;16.30;1.00
3976;DHT22;2002;48.812;9.180;2023-04-03T10:31:09;16.30;1.00
3976;DHT22;2002;48.812;9.180;2023-04-03T10:34:05;16.30;1.00
3976;DHT22;2002;48.812;9.180;2023-04-03T10:36:53;16.30;1.00
3976;DHT22;2002;48.812;9.180;2023-04-03T10:42:38;16.30;1.00
3976;DHT22;2002;48.812;9.180;2023-04-03T10:45:19;16.30;1.00
3976;DHT22;2002;48.812;9.180;2023-04-03T10:47:55;16.30;1.00
3976;DHT22;2002;48.812;9.180;2023-04-03T10:56:35;16.20;1.00
3976;DHT22;2002;48.812;9.180;2023-04-03T11:02:28;16.20;1.00
3976;DHT22;2002;48.812;9.180;2023-04-03T11:05:04;16.30;1.00
3976;DHT22;2002;48.812;9.180;2023-04-03T11:07:39;16.20;1.00
3976;DHT22;2002;48.812;9.180;2023-04-03T11:10:17;16.20;1.00
3976;DHT22;2002;48.812;9.180;2023-04-03T11:12:52;16.20;1.00
3976;DHT22;2002;48.812;9.180;2023-04-03T11:15:22;16.20;1.00
3976;DHT22;2002;48.812;9.180;2023-04-03T11:17:58;16.20;1.00
3976;DHT22;2002;48.812;9.180;2023-04-03T11:20:29;16.20;1.00
3976;DHT22;2002;48.812;9.180;2023-04-03T11:23:04;16.30;1.00
3976;DHT22;2002;48.812;9.180;2023-04-03T11:25:33;16.40;1.00
3976;DHT22;2002;48.812;9.180;2023-04-03T11:28:01;16.60;1.00
3976;DHT22;2002;48.812;9.180;2023-04-03T11:36:12;16.70;1.00
3976;DHT22;2002;48.812;9.180;2023-04-03T11:38:44;16.60;1.00
3976;DHT22;2002;48.812;9.180;2023-04-03T11:41:13;16.60;1.00
3976;DHT22;2002;48.812;9.180;2023-04-03T11:43:42;16.60;1.00
3976;DHT22;2002;48.812;9.180;2023-04-03T11:46:20;16.50;1.00
3976;DHT22;2002;48.812;9.180;2023-04-03T11:48:48;16.50;1.00
3976;DHT22;2002;48.812;9.180;2023-04-03T11:53:43;16.40;1.00
3976;DHT22;2002;48.812;9.180;2023-04-03T12:01:52;16.40;1.00
3976;DHT22;2002;48.812;9.180;2023-04-03T12:04:20;16.40;1.00
3976;DHT22;2002;48.812;9.180;2023-04-03T12:14:47;16.30;1.00
3976;DHT22;2002;48.812;9.180;2023-04-03T12:17:26;16.30;1.00
3976;DHT22;2002;48.812;9.180;2023-04-03T12:19:52;16.30;1.00
3976;DHT22;2002;48.812;9.180;2023-04-03T12:22:20;16.30;1.00
3976;DHT22;2002;48.812;9.180;2023-04-03T12:24:51;16.30;1.00
3976;DHT22;2002;48.812;9.180;2023-04-03T12:27:27;16.30;1.00
3976;DHT22;2002;48.812;9.180;2023-04-03T12:43:25;16.30;1.00
3976;DHT22;2002;48.812;9.180;2023-04-03T12:48:57;16.30;1.00
3976;DHT22;2002;48.812;9.180;2023-04-03T12:51:34;16.20;1.00
3976;DHT22;2002;48.812;9.180;2023-04-03T12:54:30;16.30;1.00
3976;DHT22;2002;48.812;9.180;2023-04-03T12:57:34;16.30;1.00
3976;DHT22;2002;48.812;9.180;2023-04-03T13:00:18;16.30;1.00
3976;DHT22;2002;48.812;9.180;2023-04-03T13:02:45;16.20;1.00
3976;DHT22;2002;48.812;9.180;2023-04-03T13:05:16;16.20;1.00
3976;DHT22;2002;48.812;9.180;2023-04-03T13:07:43;16.20;1.00
3976;DHT22;2002;48.812;9.180;2023-04-03T13:15:43;16.20;1.00
3976;DHT22;2002;48.812;9.180;2023-04-03T13:20:51;16.20;1.00
3976;DHT22;2002;48.812;9.180;2023-04-03T13:23:18;16.20;1.00
3976;DHT22;2002;48.812;9.180;2023-04-03T13:25:46;16.30;1.00
3976;DHT22;2002;48.812;9.180;2023-04-03T13:28:15;16.50;1.00
3976;DHT22;2002;48.812;9.180;2023-04-03T13:31:02;16.70;1.00
3976;DHT22;2002;48.812;9.180;2023-04-03T13:33:31;16.90;1.00
3976;DHT22;2002;48.812;9.180;2023-04-03T13:36:17;16.90;1.00
3976;DHT22;2002;48.812;9.180;2023-04-03T13:38:43;16.80;1.00
3976;DHT22;2002;48.812;9.180;2023-04-03T13:41:25;16.80;1.00
3976;DHT22;2002;48.812;9.180;2023-04-03T13:43:51;16.70;1.00
3976;DHT22;2002;48.812;9.180;2023-04-03T13:48:54;16.60;1.00
3976;DHT22;2002;48.812;9.180;2023-04-03T13:51:28;16.60;1.00
3976;DHT22;2002;48.812;9.180;2023-04-03T13:56:37;16.50;1.00
3976;DHT22;2002;48.812;9.180;2023-04-03T13:59:33;16.40;1.00
3976;DHT22;2002;48.812;9.180;2023-04-03T14:04:29;16.40;1.00
3976;DHT22;2002;48.812;9.180;2023-04-03T14:06:55;16.30;1.00
3976;DHT22;2002;48.812;9.180;2023-04-03T14:09:23;16.30;1.00
3976;DHT22;2002;48.812;9.180;2023-04-03T14:11:52;16.30;1.00
3976;DHT22;2002;48.812;9.180;2023-04-03T14:14:32;16.30;1.00
3976;DHT22;2002;48.812;9.180;2023-04-03T14:17:01;16.30;1.00
3976;DHT22;2002;48.812;9.180;2023-04-03T14:19:32;16.20;1.00
3976;DHT22;2002;48.812;9.180;2023-04-03T14:22:00;16.30;1.00
3976;DHT22;2002;48.812;9.180;2023-04-03T14:24:26;16.20;1.00
3976;DHT22;2002;48.812;9.180;2023-04-03T14:26:54;16.20;1.00
3976;DHT22;2002;48.812;9.180;2023-04-03T14:29:20;16.20;1.00
3976;DHT22;2002;48.812;9.180;2023-04-03T14:31:47;16.20;1.00
3976;DHT22;2002;48.812;9.180;2023-04-03T14:34:14;16.20;1.00
3976;DHT22;2002;48.812;9.180;2023-04-03T14:36:41;16.20;1.00
3976;DHT22;2002;48.812;9.180;2023-04-03T14:39:11;16.20;1.00
3976;DHT22;2002;48.812;9.180;2023-04-03T14:41:41;16.20;1.00
3976;DHT22;2002;48.812;9.180;2023-04-03T14:44:07;16.20;1.00
3976;DHT22;2002;48.812;9.180;2023-04-03T14:46:36;16.20;1.00
3976;DHT22;2002;48.812;9.180;2023-04-03T14:49:04;16.20;1.00
3976;DHT22;2002;48.812;9.180;2023-04-03T14:51:34;16.20;1.00
3976;DHT22;2002;48.812;9.180;2023-04-03T14:54:00;16.20;1.00
3976;DHT22;2002;48.812;9.180;2023-04-03T14:56:27;16.20;1.00
3976;DHT22;2002;48.812;9.180;2023-04-03T14:58:59;16.20;1.00
3976;DHT22;2002;48.812;9.180;2023-04-03T15:01:25;16.20;1.00
3976;DHT22;2002;48.812;9.180;2023-04-03T15:03:50;16.20;1.00
3976;DHT22;2002;48.812;9.180;2023-04-03T15:06:16;16.20;1.00
3976;DHT22;2002;48.812;9.180;2023-04-03T15:08:43;16.20;1.00
3976;DHT22;2002;48.812;9.180;2023-04-03T15:11:10;16.20;1.00
3976;DHT22;2002;48.812;9.180;2023-04-03T15:13:37;16.20;1.00
3976;DHT22;2002;48.812;9.180;2023-04-03T15:16:04;16.20;1.00
3976;DHT22;2002;48.812;9.180;2023-04-03T15:18:35;16.20;1.00
3976;DHT22;2002;48.812;9.180;2023-04-03T15:21:03;16.20;1.00
3976;DHT22;2002;48.812;9.180;2023-04-03T15:23:28;16.20;1.00
3976;DHT22;2002;48.812;9.180;2023-04-03T15:25:55;16.20;1.00
3976;DHT22;2002;48.812;9.180;2023-04-03T15:28:26;16.20;1.00
3976;DHT22;2002;48.812;9.180;2023-04-03T15:30:53;16.30;1.00
3976;DHT22;2002;48.812;9.180;2023-04-03T15:33:18;16.50;1.00
3976;DHT22;2002;48.812;9.180;2023-04-03T15:35:44;16.60;1.00
3976;DHT22;2002;48.812;9.180;2023-04-03T15:38:10;16.70;1.00
3976;DHT22;2002;48.812;9.180;2023-04-03T15:40:36;16.60;1.00
3976;DHT22;2002;48.812;9.180;2023-04-03T15:43:01;16.70;1.00
3976;DHT22;2002;48.812;9.180;2023-04-03T15:45:30;16.60;1.00
3976;DHT22;2002;48.812;9.180;2023-04-03T15:47:57;16.60;1.00
3976;DHT22;2002;48.812;9.180;2023-04-03T15:50:23;16.50;1.00
3976;DHT22;2002;48.812;9.180;2023-04-03T15:52:50;16.50;1.00
3976;DHT22;2002;48.812;9.180;2023-04-03T15:55:21;16.40;1.00
3976;DHT22;2002;48.812;9.180;2023-04-03T15:57:46;16.40;1.00
3976;DHT22;2002;48.812;9.180;2023-04-03T16:00:12;16.40;1.00
3976;DHT22;2002;48.812;9.180;2023-04-03T16:02:38;16.40;1.00
3976;DHT22;2002;48.812;9.180;2023-04-03T16:05:04;16.40;1.00
3976;DHT22;2002;48.812;9.180;2023-04-03T16:07:30;16.30;1.00
3976;DHT22;2002;48.812;9.180;2023-04-03T16:09:56;16.30;1.00
3976;DHT22;2002;48.812;9.180;2023-04-03T16:12:22;16.30;1.00
3976;DHT22;2002;48.812;9.180;2023-04-03T16:14:47;16.30;1.00
3976;DHT22;2002;48.812;9.180;2023-04-03T16:17:13;16.30;1.00
3976;DHT22;2002;48.812;9.180;2023-04-03T16:19:38;16.30;1.00
3976;DHT22;2002;48.812;9.180;2023-04-03T16:22:04;16.20;1.00
3976;DHT22;2002;48.812;9.180;2023-04-03T16:24:30;16.20;1.00
3976;DHT22;2002;48.812;9.180;2023-04-03T16:26:55;16.20;1.00
3976;DHT22;2002;48.812;9.180;2023-04-03T16:29:21;16.20;1.00
3976;DHT22;2002;48.812;9.180;2023-04-03T16:31:46;16.20;1.00
3976;DHT22;2002;48.812;9.180;2023-04-03T16:34:13;16.20;1.00
3976;DHT22;2002;48.812;9.180;2023-04-03T16:36:38;16.20;1.00
3976;DHT22;2002;48.812;9.180;2023-04-03T16:39:04;16.20;1.00
3976;DHT22;2002;48.812;9.180;2023-04-03T16:41:30;16.20;1.00
3976;DHT22;2002;48.812;9.180;2023-04-03T16:43:55;16.20;1.00
3976;DHT22;2002;48.812;9.180;2023-04-03T16:46:21;16.20;1.00
3976;DHT22;2002;48.812;9.180;2023-04-03T16:48:46;16.20;1.00
3976;DHT22;2002;48.812;9.180;2023-04-03T16:51:12;16.20;1.00
3976;DHT22;2002;48.812;9.180;2023-04-03T16:53:38;16.20;1.00
3976;DHT22;2002;48.812;9.180;2023-04-03T16:56:04;16.20;1.00
3976;DHT22;2002;48.812;9.180;2023-04-03T16:58:30;16.20;1.00
3976;DHT22;2002;48.812;9.180;2023-04-03T17:00:55;16.20;1.00
3976;DHT22;2002;48.812;9.180;2023-04-03T17:03:21;16.20;1.00
3976;DHT22;2002;48.812;9.180;2023-04-03T17:05:49;16.10;1.00
3976;DHT22;2002;48.812;9.180;2023-04-03T17:08:16;16.20;1.00
3976;DHT22;2002;48.812;9.180;2023-04-03T17:10:42;16.10;1.00
3976;DHT22;2002;48.812;9.180;2023-04-03T17:13:07;16.10;1.00
3976;DHT22;2002;48.812;9.180;2023-04-03T17:15:33;16.10;1.00
3976;DHT22;2002;48.812;9.180;2023-04-03T17:17:59;16.20;1.00
3976;DHT22;2002;48.812;9.180;2023-04-03T17:20:25;16.20;1.00
3976;DHT22;2002;48.812;9.180;2023-04-03T17:22:51;16.30;1.00
3976;DHT22;2002;48.812;9.180;2023-04-03T17:25:17;16.50;1.00
3976;DHT22;2002;48.812;9.180;2023-04-03T17:27:42;16.60;1.00
3976;DHT22;2002;48.812;9.180;2023-04-03T17:30:08;16.70;1.00
3976;DHT22;2002;48.812;9.180;2023-04-03T17:32:34;16.60;1.00
3976;DHT22;2002;48.812;9.180;2023-04-03T17:34:59;16.60;1.00
3976;DHT22;2002;48.812;9.180;2023-04-03T17:37:25;16.60;1.00
3976;DHT22;2002;48.812;9.180;2023-04-03T17:39:51;16.50;1.00
3976;DHT22;2002;48.812;9.180;2023-04-03T17:42:16;16.50;1.00
3976;DHT22;2002;48.812;9.180;2023-04-03T17:44:42;16.50;1.00
3976;DHT22;2002;48.812;9.180;2023-04-03T17:47:07;16.40;1.00
3976;DHT22;2002;48.812;9.180;2023-04-03T17:49:33;16.40;1.00
3976;DHT22;2002;48.812;9.180;2023-04-03T17:51:58;16.40;1.00
3976;DHT22;2002;48.812;9.180;2023-04-03T17:54:24;16.30;1.00
3976;DHT22;2002;48.812;9.180;2023-04-03T17:56:50;16.30;1.00
3976;DHT22;2002;48.812;9.180;2023-04-03T17:59:16;16.30;1.00
3976;DHT22;2002;48.812;9.180;2023-04-03T18:01:44;16.20;1.00
3976;DHT22;2002;48.812;9.180;2023-04-03T18:04:10;16.20;1.00